sensor_id;sensor_type;location;lat;lon;timestamp;temperature;humidity
53272;DHT22;39160;48.580;7.756;2023-04-03T00:03:41;6.90;99.90
53272;DHT22;39160;48.580;7.756;2023-04-03T00:08:32;6.90;99.90
53272;DHT22;39160;48.580;7.756;2023-04-03T00:13:23;6.90;99.90
53272;DHT22;39160;48.580;7.756;2023-04-03T00:18:14;6.90;99.90
53272;DHT22;39160;48.580;7.756;2023-04-03T00:23:05;6.90;99.90
53272;DHT22;39160;48.580;7.756;2023-04-03T00:27:56;6.80;99.90
53272;DHT22;39160;48.580;7.756;2023-04-03T00:32:50;6.70;99.90
53272;DHT22;39160;48.580;7.756;2023-04-03T00:37:42;6.70;99.90
53272;DHT22;39160;48.580;7.756;2023-04-03T00:42:33;6.70;99.90
53272;DHT22;39160;48.580;7.756;2023-04-03T00:47:24;6.70;99.90
53272;DHT22;39160;48.580;7.756;2023-04-03T00:52:18;6.70;99.90
53272;DHT22;39160;48.580;7.756;2023-04-03T00:57:10;6.80;99.90
53272;DHT22;39160;48.580;7.756;2023-04-03T01:02:02;6.80;99.90
53272;DHT22;39160;48.580;7.756;2023-04-03T01:06:53;6.70;99.90
53272;DHT22;39160;48.580;7.756;2023-04-03T01:11:45;6.70;99.90
53272;DHT22;39160;48.580;7.756;2023-04-03T01:16:36;6.70;99.90
53272;DHT22;39160;48.580;7.756;2023-04-03T01:21:30;6.70;99.90
53272;DHT22;39160;48.580;7.756;2023-04-03T01:26:30;6.70;99.90
53272;DHT22;39160;48.580;7.756;2023-04-03T01:31:27;6.70;99.90
53272;DHT22;39160;48.580;7.756;2023-04-03T01:36:25;6.70;99.90
53272;DHT22;39160;48.580;7.756;2023-04-03T01:41:17;6.70;99.90
53272;DHT22;39160;48.580;7.756;2023-04-03T01:46:08;6.60;99.90
53272;DHT22;39160;48.580;7.756;2023-04-03T01:50:59;6.60;99.90
53272;DHT22;39160;48.580;7.756;2023-04-03T01:55:50;6.70;99.90
53272;DHT22;39160;48.580;7.756;2023-04-03T02:00:40;6.70;99.90
53272;DHT22;39160;48.580;7.756;2023-04-03T02:05:31;6.70;99.90
53272;DHT22;39160;48.580;7.756;2023-04-03T02:10:22;6.70;99.90
53272;DHT22;39160;48.580;7.756;2023-04-03T02:15:12;6.70;99.90
53272;DHT22;39160;48.580;7.756;2023-04-03T02:20:03;6.60;99.90
53272;DHT22;39160;48.580;7.756;2023-04-03T02:24:54;6.60;99.90
53272;DHT22;39160;48.580;7.756;2023-04-03T02:29:45;6.70;99.90
53272;DHT22;39160;48.580;7.756;2023-04-03T02:34:35;6.70;99.90
53272;DHT22;39160;48.580;7.756;2023-04-03T02:39:26;6.70;99.90
53272;DHT22;39160;48.580;7.756;2023-04-03T02:44:16;6.70;99.90
53272;DHT22;39160;48.580;7.756;2023-04-03T02:49:08;6.70;99.90
53272;DHT22;39160;48.580;7.756;2023-04-03T02:53:58;6.60;99.90
53272;DHT22;39160;48.580;7.756;2023-04-03T02:58:49;6.60;99.90
53272;DHT22;39160;48.580;7.756;2023-04-03T03:03:40;6.60;99.90
53272;DHT22;39160;48.580;7.756;2023-04-03T03:08:31;6.50;99.90
53272;DHT22;39160;48.580;7.756;2023-04-03T03:13:22;6.50;99.90
53272;DHT22;39160;48.580;7.756;2023-04-03T03:18:13;6.50;99.90
53272;DHT22;39160;48.580;7.756;2023-04-03T03:23:03;6.40;99.90
53272;DHT22;39160;48.580;7.756;2023-04-03T03:27:54;6.40;99.90
53272;DHT22;39160;48.580;7.756;2023-04-03T03:32:45;6.30;99.90
53272;DHT22;39160;48.580;7.756;2023-04-03T03:37:35;6.30;99.90
53272;DHT22;39160;48.580;7.756;2023-04-03T03:42:26;6.30;99.90
53272;DHT22;39160;48.580;7.756;2023-04-03T03:47:17;6.30;99.90
53272;DHT22;39160;48.580;7.756;2023-04-03T03:52:07;6.10;99.90
53272;DHT22;39160;48.580;7.756;2023-04-03T03:57:00;6.20;99.90
53272;DHT22;39160;48.580;7.756;2023-04-03T04:01:51;6.20;99.90
53272;DHT22;39160;48.580;7.756;2023-04-03T04:06:42;6.10;99.90
53272;DHT22;39160;48.580;7.756;2023-04-03T04:11:32;6.10;99.90
53272;DHT22;39160;48.580;7.756;2023-04-03T04:16:23;6.10;99.90
53272;DHT22;39160;48.580;7.756;2023-04-03T04:21:14;6.00;99.90
53272;DHT22;39160;48.580;7.756;2023-04-03T04:26:05;6.00;99.90
53272;DHT22;39160;48.580;7.756;2023-04-03T04:30:55;6.00;99.90
53272;DHT22;39160;48.580;7.756;2023-04-03T04:35:47;6.00;99.90
53272;DHT22;39160;48.580;7.756;2023-04-03T04:40:38;6.00;99.90
53272;DHT22;39160;48.580;7.756;2023-04-03T04:45:29;6.00;99.90
53272;DHT22;39160;48.580;7.756;2023-04-03T04:50:20;6.00;99.90
53272;DHT22;39160;48.580;7.756;2023-04-03T04:55:10;5.90;99.90
53272;DHT22;39160;48.580;7.756;2023-04-03T05:00:01;6.00;99.90
53272;DHT22;39160;48.580;7.756;2023-04-03T05:04:52;6.00;99.90
53272;DHT22;39160;48.580;7.756;2023-04-03T05:09:42;6.00;99.90
53272;DHT22;39160;48.580;7.756;2023-04-03T05:14:33;5.90;99.90
53272;DHT22;39160;48.580;7.756;2023-04-03T05:19:24;5.90;99.90
53272;DHT22;39160;48.580;7.756;2023-04-03T05:24:15;5.90;99.90
53272;DHT22;39160;48.580;7.756;2023-04-03T05:29:06;5.90;99.90
53272;DHT22;39160;48.580;7.756;2023-04-03T05:33:57;5.90;99.90
53272;DHT22;39160;48.580;7.756;2023-04-03T05:38:48;6.00;99.90
53272;DHT22;39160;48.580;7.756;2023-04-03T05:43:39;6.00;99.90
53272;DHT22;39160;48.580;7.756;2023-04-03T05:48:30;6.10;99.90
53272;DHT22;39160;48.580;7.756;2023-04-03T05:53:25;6.10;99.90
53272;DHT22;39160;48.580;7.756;2023-04-03T05:58:17;6.10;99.90
53272;DHT22;39160;48.580;7.756;2023-04-03T06:03:08;6.20;99.90
53272;DHT22;39160;48.580;7.756;2023-04-03T06:07:58;6.20;99.90
53272;DHT22;39160;48.580;7.756;2023-04-03T06:12:49;6.20;99.90
53272;DHT22;39160;48.580;7.756;2023-04-03T06:17:40;6.40;99.90
53272;DHT22;39160;48.580;7.756;2023-04-03T06:22:31;6.50;99.90
53272;DHT22;39160;48.580;7.756;2023-04-03T06:27:22;6.50;99.90
53272;DHT22;39160;48.580;7.756;2023-04-03T06:32:12;6.50;99.90
53272;DHT22;39160;48.580;7.756;2023-04-03T06:37:03;6.70;99.90
53272;DHT22;39160;48.580;7.756;2023-04-03T06:41:54;6.80;99.90
53272;DHT22;39160;48.580;7.756;2023-04-03T06:46:45;6.80;99.90
53272;DHT22;39160;48.580;7.756;2023-04-03T06:51:36;6.80;99.90
53272;DHT22;39160;48.580;7.756;2023-04-03T06:56:27;7.00;99.90
53272;DHT22;39160;48.580;7.756;2023-04-03T07:01:18;7.10;99.90
53272;DHT22;39160;48.580;7.756;2023-04-03T07:06:12;7.00;99.90
53272;DHT22;39160;48.580;7.756;2023-04-03T07:11:04;6.90;99.90
53272;DHT22;39160;48.580;7.756;2023-04-03T07:15:55;7.10;99.90
53272;DHT22;39160;48.580;7.756;2023-04-03T07:20:47;7.10;99.90
53272;DHT22;39160;48.580;7.756;2023-04-03T07:25:42;7.10;99.90
53272;DHT22;39160;48.580;7.756;2023-04-03T07:30:33;7.30;99.90
53272;DHT22;39160;48.580;7.756;2023-04-03T07:35:24;7.40;99.90
53272;DHT22;39160;48.580;7.756;2023-04-03T07:40:15;7.50;99.90
53272;DHT22;39160;48.580;7.756;2023-04-03T07:45:05;7.40;99.90
53272;DHT22;39160;48.580;7.756;2023-04-03T07:49:57;7.50;99.90
53272;DHT22;39160;48.580;7.756;2023-04-03T07:54:48;7.50;99.90
53272;DHT22;39160;48.580;7.756;2023-04-03T07:59:38;7.70;99.90
53272;DHT22;39160;48.580;7.756;2023-04-03T08:04:31;7.60;99.90
53272;DHT22;39160;48.580;7.756;2023-04-03T08:09:22;7.70;99.90
53272;DHT22;39160;48.580;7.756;2023-04-03T08:14:13;7.80;99.90
53272;DHT22;39160;48.580;7.756;2023-04-03T08:19:06;7.80;99.90
53272;DHT22;39160;48.580;7.756;2023-04-03T08:23:58;7.90;99.90
53272;DHT22;39160;48.580;7.756;2023-04-03T08:28:49;8.10;99.90
53272;DHT22;39160;48.580;7.756;2023-04-03T08:33:40;8.20;99.80
53272;DHT22;39160;48.580;7.756;2023-04-03T08:38:30;8.60;99.90
53272;DHT22;39160;48.580;7.756;2023-04-03T08:48:21;9.30;99.50
53272;DHT22;39160;48.580;7.756;2023-04-03T08:53:16;9.30;99.40
53272;DHT22;39160;48.580;7.756;2023-04-03T08:58:28;8.90;99.40
53272;DHT22;39160;48.580;7.756;2023-04-03T09:03:21;8.70;99.50
53272;DHT22;39160;48.580;7.756;2023-04-03T09:13:21;8.70;99.40
53272;DHT22;39160;48.580;7.756;2023-04-03T09:18:15;9.00;99.40
53272;DHT22;39160;48.580;7.756;2023-04-03T09:23:38;9.00;99.30
53272;DHT22;39160;48.580;7.756;2023-04-03T09:28:34;8.90;99.20
53272;DHT22;39160;48.580;7.756;2023-04-03T09:33:26;8.80;99.10
53272;DHT22;39160;48.580;7.756;2023-04-03T09:38:21;8.90;99.20
53272;DHT22;39160;48.580;7.756;2023-04-03T09:53:12;9.20;98.70
53272;DHT22;39160;48.580;7.756;2023-04-03T09:58:29;9.20;98.70
53272;DHT22;39160;48.580;7.756;2023-04-03T10:03:30;9.60;98.80
53272;DHT22;39160;48.580;7.756;2023-04-03T10:08:33;9.40;98.40
53272;DHT22;39160;48.580;7.756;2023-04-03T10:13:24;9.10;98.20
53272;DHT22;39160;48.580;7.756;2023-04-03T10:23:47;9.70;98.10
53272;DHT22;39160;48.580;7.756;2023-04-03T10:44:28;10.00;97.90
53272;DHT22;39160;48.580;7.756;2023-04-03T10:49:34;10.00;97.70
53272;DHT22;39160;48.580;7.756;2023-04-03T10:59:50;10.00;97.00
53272;DHT22;39160;48.580;7.756;2023-04-03T11:04:44;10.00;96.70
53272;DHT22;39160;48.580;7.756;2023-04-03T11:09:43;10.20;96.60
53272;DHT22;39160;48.580;7.756;2023-04-03T11:14:36;10.40;96.30
53272;DHT22;39160;48.580;7.756;2023-04-03T11:20:20;10.40;96.20
53272;DHT22;39160;48.580;7.756;2023-04-03T11:29:58;10.20;96.10
53272;DHT22;39160;48.580;7.756;2023-04-03T11:34:52;10.10;95.90
53272;DHT22;39160;48.580;7.756;2023-04-03T11:39:54;10.10;95.90
53272;DHT22;39160;48.580;7.756;2023-04-03T11:44:47;10.20;95.70
53272;DHT22;39160;48.580;7.756;2023-04-03T11:54:49;10.40;95.50
53272;DHT22;39160;48.580;7.756;2023-04-03T11:59:40;10.50;95.20
53272;DHT22;39160;48.580;7.756;2023-04-03T12:04:32;10.60;95.10
53272;DHT22;39160;48.580;7.756;2023-04-03T12:14:17;10.90;94.80
53272;DHT22;39160;48.580;7.756;2023-04-03T12:29:10;11.20;94.50
53272;DHT22;39160;48.580;7.756;2023-04-03T12:45:02;10.90;93.70
53272;DHT22;39160;48.580;7.756;2023-04-03T12:49:59;10.60;93.50
53272;DHT22;39160;48.580;7.756;2023-04-03T12:54:51;10.60;93.50
53272;DHT22;39160;48.580;7.756;2023-04-03T12:59:44;10.40;93.20
53272;DHT22;39160;48.580;7.756;2023-04-03T13:04:38;10.70;93.20
53272;DHT22;39160;48.580;7.756;2023-04-03T13:09:31;10.80;92.90
53272;DHT22;39160;48.580;7.756;2023-04-03T13:14:25;11.30;92.90
53272;DHT22;39160;48.580;7.756;2023-04-03T13:19:17;11.60;92.80
53272;DHT22;39160;48.580;7.756;2023-04-03T13:24:08;11.30;92.60
53272;DHT22;39160;48.580;7.756;2023-04-03T13:29:06;11.10;92.70
53272;DHT22;39160;48.580;7.756;2023-04-03T13:33:58;11.10;92.60
53272;DHT22;39160;48.580;7.756;2023-04-03T13:54:29;11.70;92.00
53272;DHT22;39160;48.580;7.756;2023-04-03T13:59:35;11.60;91.40
53272;DHT22;39160;48.580;7.756;2023-04-03T14:04:32;11.40;91.20
53272;DHT22;39160;48.580;7.756;2023-04-03T14:09:25;11.40;91.70
53272;DHT22;39160;48.580;7.756;2023-04-03T14:14:23;11.30;91.20
53272;DHT22;39160;48.580;7.756;2023-04-03T14:19:18;11.10;90.80
53272;DHT22;39160;48.580;7.756;2023-04-03T14:24:09;11.00;90.80
53272;DHT22;39160;48.580;7.756;2023-04-03T14:29:02;10.80;90.70
53272;DHT22;39160;48.580;7.756;2023-04-03T14:33:52;10.50;90.80
53272;DHT22;39160;48.580;7.756;2023-04-03T14:38:44;10.50;90.80
53272;DHT22;39160;48.580;7.756;2023-04-03T14:43:35;10.40;90.70
53272;DHT22;39160;48.580;7.756;2023-04-03T14:48:27;10.30;90.80
53272;DHT22;39160;48.580;7.756;2023-04-03T14:53:19;11.10;90.80
53272;DHT22;39160;48.580;7.756;2023-04-03T14:58:18;11.20;90.80
53272;DHT22;39160;48.580;7.756;2023-04-03T15:03:17;11.10;90.90
53272;DHT22;39160;48.580;7.756;2023-04-03T15:08:18;10.60;90.90
53272;DHT22;39160;48.580;7.756;2023-04-03T15:13:12;10.50;91.00
53272;DHT22;39160;48.580;7.756;2023-04-03T15:18:03;10.40;91.10
53272;DHT22;39160;48.580;7.756;2023-04-03T15:22:55;10.20;90.90
53272;DHT22;39160;48.580;7.756;2023-04-03T15:27:46;10.00;90.90
53272;DHT22;39160;48.580;7.756;2023-04-03T15:32:37;10.00;90.80
53272;DHT22;39160;48.580;7.756;2023-04-03T15:37:28;9.90;90.80
53272;DHT22;39160;48.580;7.756;2023-04-03T15:42:19;10.10;90.90
53272;DHT22;39160;48.580;7.756;2023-04-03T15:47:09;10.30;90.60
53272;DHT22;39160;48.580;7.756;2023-04-03T15:52:00;11.60;89.70
53272;DHT22;39160;48.580;7.756;2023-04-03T15:56:52;11.40;90.20
53272;DHT22;39160;48.580;7.756;2023-04-03T16:01:43;11.20;90.30
53272;DHT22;39160;48.580;7.756;2023-04-03T16:06:33;11.20;90.30
53272;DHT22;39160;48.580;7.756;2023-04-03T16:11:25;11.00;89.90
53272;DHT22;39160;48.580;7.756;2023-04-03T16:16:16;11.20;89.70
53272;DHT22;39160;48.580;7.756;2023-04-03T16:21:07;11.30;89.30
53272;DHT22;39160;48.580;7.756;2023-04-03T16:25:58;11.20;89.40
53272;DHT22;39160;48.580;7.756;2023-04-03T16:30:49;10.80;89.40
53272;DHT22;39160;48.580;7.756;2023-04-03T16:35:40;10.60;89.80
53272;DHT22;39160;48.580;7.756;2023-04-03T16:40:32;10.30;89.50
53272;DHT22;39160;48.580;7.756;2023-04-03T16:45:24;10.10;89.70
53272;DHT22;39160;48.580;7.756;2023-04-03T16:50:14;9.90;89.60
53272;DHT22;39160;48.580;7.756;2023-04-03T16:55:07;9.70;89.40
53272;DHT22;39160;48.580;7.756;2023-04-03T16:59:58;9.70;89.00
53272;DHT22;39160;48.580;7.756;2023-04-03T17:04:48;9.80;88.80
53272;DHT22;39160;48.580;7.756;2023-04-03T17:09:39;12.30;86.90
53272;DHT22;39160;48.580;7.756;2023-04-03T17:14:30;11.00;87.50
53272;DHT22;39160;48.580;7.756;2023-04-03T17:19:21;10.20;88.40
53272;DHT22;39160;48.580;7.756;2023-04-03T17:24:14;9.80;88.70
53272;DHT22;39160;48.580;7.756;2023-04-03T17:29:05;9.70;88.70
53272;DHT22;39160;48.580;7.756;2023-04-03T17:33:56;9.50;88.60
53272;DHT22;39160;48.580;7.756;2023-04-03T17:38:50;9.40;88.60
53272;DHT22;39160;48.580;7.756;2023-04-03T17:43:40;9.20;88.50
53272;DHT22;39160;48.580;7.756;2023-04-03T17:48:32;9.00;88.40
53272;DHT22;39160;48.580;7.756;2023-04-03T17:53:23;8.90;88.40
53272;DHT22;39160;48.580;7.756;2023-04-03T17:58:16;8.90;88.30
53272;DHT22;39160;48.580;7.756;2023-04-03T18:03:07;8.80;88.40
53272;DHT22;39160;48.580;7.756;2023-04-03T18:07:59;8.60;88.20
53272;DHT22;39160;48.580;7.756;2023-04-03T18:12:51;8.60;88.20
53272;DHT22;39160;48.580;7.756;2023-04-03T18:17:42;8.50;88.20
53272;DHT22;39160;48.580;7.756;2023-04-03T18:22:33;8.40;88.30
53272;DHT22;39160;48.580;7.756;2023-04-03T18:27:25;8.30;88.30
53272;DHT22;39160;48.580;7.756;2023-04-03T18:32:18;8.30;88.30
53272;DHT22;39160;48.580;7.756;2023-04-03T18:37:09;8.20;88.40
53272;DHT22;39160;48.580;7.756;2023-04-03T18:42:05;8.10;88.60
53272;DHT22;39160;48.580;7.756;2023-04-03T18:46:57;8.20;88.40
53272;DHT22;39160;48.580;7.756;2023-04-03T18:51:49;8.20;88.50
53272;DHT22;39160;48.580;7.756;2023-04-03T18:56:40;8.10;88.60
53272;DHT22;39160;48.580;7.756;2023-04-03T19:01:31;8.30;88.40
53272;DHT22;39160;48.580;7.756;2023-04-03T19:06:22;8.40;88.40
53272;DHT22;39160;48.580;7.756;2023-04-03T19:11:13;8.20;88.70
53272;DHT22;39160;48.580;7.756;2023-04-03T19:16:04;8.10;88.90
53272;DHT22;39160;48.580;7.756;2023-04-03T19:20:55;8.00;89.30
53272;DHT22;39160;48.580;7.756;2023-04-03T19:25:46;7.90;89.30
53272;DHT22;39160;48.580;7.756;2023-04-03T19:30:46;7.80;90.00
53272;DHT22;39160;48.580;7.756;2023-04-03T19:35:39;7.70;89.50
53272;DHT22;39160;48.580;7.756;2023-04-03T19:40:31;7.60;89.60
53272;DHT22;39160;48.580;7.756;2023-04-03T19:45:22;7.50;89.90
53272;DHT22;39160;48.580;7.756;2023-04-03T19:50:15;7.50;90.00
53272;DHT22;39160;48.580;7.756;2023-04-03T19:55:06;7.30;90.10
53272;DHT22;39160;48.580;7.756;2023-04-03T19:59:57;7.40;90.20
53272;DHT22;39160;48.580;7.756;2023-04-03T20:04:48;7.30;90.10
53272;DHT22;39160;48.580;7.756;2023-04-03T20:09:38;7.40;90.20
53272;DHT22;39160;48.580;7.756;2023-04-03T20:14:29;7.30;90.10
53272;DHT22;39160;48.580;7.756;2023-04-03T20:19:20;7.30;90.10
53272;DHT22;39160;48.580;7.756;2023-04-03T20:24:12;7.30;90.00
53272;DHT22;39160;48.580;7.756;2023-04-03T20:29:03;7.30;89.90
53272;DHT22;39160;48.580;7.756;2023-04-03T20:33:54;7.20;89.80
53272;DHT22;39160;48.580;7.756;2023-04-03T20:38:46;7.20;89.80
53272;DHT22;39160;48.580;7.756;2023-04-03T20:43:37;7.10;89.80
53272;DHT22;39160;48.580;7.756;2023-04-03T20:48:29;7.10;89.70
53272;DHT22;39160;48.580;7.756;2023-04-03T20:53:20;7.00;89.70
53272;DHT22;39160;48.580;7.756;2023-04-03T20:58:11;7.00;89.60
53272;DHT22;39160;48.580;7.756;2023-04-03T21:03:03;7.00;89.60
53272;DHT22;39160;48.580;7.756;2023-04-03T21:23:53;6.90;89.50
53272;DHT22;39160;48.580;7.756;2023-04-03T21:28:44;6.80;89.60
53272;DHT22;39160;48.580;7.756;2023-04-03T21:33:36;6.70;89.60
53272;DHT22;39160;48.580;7.756;2023-04-03T21:38:26;6.70;89.60
53272;DHT22;39160;48.580;7.756;2023-04-03T21:43:17;6.60;89.60
53272;DHT22;39160;48.580;7.756;2023-04-03T21:48:08;6.50;89.60
53272;DHT22;39160;48.580;7.756;2023-04-03T21:52:59;6.40;89.70
53272;DHT22;39160;48.580;7.756;2023-04-03T21:57:51;6.40;89.70
53272;DHT22;39160;48.580;7.756;2023-04-03T22:02:42;6.30;89.80
53272;DHT22;39160;48.580;7.756;2023-04-03T22:07:33;6.30;90.00
53272;DHT22;39160;48.580;7.756;2023-04-03T22:12:24;6.20;90.00
53272;DHT22;39160;48.580;7.756;2023-04-03T22:17:14;6.20;90.10
53272;DHT22;39160;48.580;7.756;2023-04-03T22:22:06;6.10;90.10
53272;DHT22;39160;48.580;7.756;2023-04-03T22:26:56;6.10;90.20
53272;DHT22;39160;48.580;7.756;2023-04-03T22:31:47;6.10;90.20
53272;DHT22;39160;48.580;7.756;2023-04-03T22:36:38;6.00;90.30
53272;DHT22;39160;48.580;7.756;2023-04-03T22:41:28;5.90;90.30
53272;DHT22;39160;48.580;7.756;2023-04-03T22:46:19;5.90;90.40
53272;DHT22;39160;48.580;7.756;2023-04-03T22:51:10;5.80;90.50
53272;DHT22;39160;48.580;7.756;2023-04-03T22:56:03;5.80;90.50
53272;DHT22;39160;48.580;7.756;2023-04-03T23:01:09;5.70;90.60
53272;DHT22;39160;48.580;7.756;2023-04-03T23:06:00;5.70;90.60
53272;DHT22;39160;48.580;7.756;2023-04-03T23:10:56;5.60;90.70
53272;DHT22;39160;48.580;7.756;2023-04-03T23:15:57;5.60;90.80
53272;DHT22;39160;48.580;7.756;2023-04-03T23:20:48;5.50;90.80
53272;DHT22;39160;48.580;7.756;2023-04-03T23:25:44;5.50;90.90
53272;DHT22;39160;48.580;7.756;2023-04-03T23:30:34;5.50;91.00
53272;DHT22;39160;48.580;7.756;2023-04-03T23:35:25;5.50;90.90
53272;DHT22;39160;48.580;7.756;2023-04-03T23:40:17;5.40;91.00
53272;DHT22;39160;48.580;7.756;2023-04-03T23:45:08;5.30;91.20
53272;DHT22;39160;48.580;7.756;2023-04-03T23:49:59;5.30;91.10
53272;DHT22;39160;48.580;7.756;2023-04-03T23:54:49;5.20;91.30
53272;DHT22;39160;48.580;7.756;2023-04-03T23:59:40;5.20;91.40
